Time;durP1;ratioP1;P1;durP2;ratioP2;P2;SDS_P1;SDS_P2;PMS_P1;PMS_P2;Temp;Humidity;BMP_temperature;BMP_pressure;BME280_temperature;BME280_humidity;BME280_pressure;Samples;Min_cycle;Max_cycle;Signal;HPM_P1;HPM_P2
2021/12/02 00:01:37;;;;;;;0.47;0.40;;;;;;;7.61;78.75;93742.25;4386678;32;20346;-62
2021/12/02 00:04:03;;;;;;;0.50;0.40;;;;;;;7.48;78.75;93743.22;4387175;32;20363;-62
2021/12/02 00:06:28;;;;;;;0.40;0.40;;;;;;;7.57;78.83;93755.28;4380051;32;20238;-62
2021/12/02 00:08:54;;;;;;;0.83;0.50;;;;;;;7.64;78.61;93746.13;4383568;32;20244;-62
2021/12/02 00:11:20;;;;;;;0.40;0.40;;;;;;;7.58;79.12;93750.78;4378093;32;20231;-62
2021/12/02 00:21:17;;;;;;;0.40;0.40;;;;;;;7.63;78.60;93740.06;4386248;32;20288;-62
2021/12/02 00:23:58;;;;;;;0.40;0.40;;;;;;;7.55;77.86;93746.91;4388248;32;20355;-62
2021/12/02 00:26:23;;;;;;;0.20;0.20;;;;;;;7.50;78.00;93746.28;4383666;32;21451;-62
2021/12/02 00:28:53;;;;;;;0.20;0.20;;;;;;;7.58;78.12;93746.28;4383190;32;20288;-62
2021/12/02 00:31:24;;;;;;;0.43;0.43;;;;;;;7.59;77.90;93744.44;4385925;32;20204;-62
2021/12/02 00:33:54;;;;;;;0.47;0.47;;;;;;;7.63;77.25;93742.72;4389692;32;20300;-62
2021/12/02 00:36:24;;;;;;;0.50;0.50;;;;;;;7.54;77.56;93737.44;4377938;32;20289;-62
2021/12/02 00:38:51;;;;;;;0.40;0.40;;;;;;;7.52;77.85;93731.69;4387178;32;20280;-62
2021/12/02 00:41:18;;;;;;;0.40;0.40;;;;;;;7.53;79.03;93745.66;4384518;32;20281;-62
2021/12/02 00:43:46;;;;;;;0.40;0.40;;;;;;;7.53;78.17;93743.81;4385817;32;20284;-62
2021/12/02 00:46:18;;;;;;;0.57;0.40;;;;;;;7.54;78.53;93740.09;4380213;32;20339;-62
2021/12/02 00:48:44;;;;;;;0.87;0.40;;;;;;;7.50;78.57;93738.38;4381038;32;20289;-63
2021/12/02 00:51:11;;;;;;;0.87;0.33;;;;;;;7.62;78.28;93748.31;4386318;32;20292;-63
2021/12/02 00:53:40;;;;;;;0.30;0.30;;;;;;;7.42;78.64;93745.22;4379685;32;20292;-62
2021/12/02 00:56:07;;;;;;;0.93;0.40;;;;;;;7.49;78.43;93744.75;4387568;32;20279;-63
2021/12/02 00:58:33;;;;;;;0.40;0.40;;;;;;;7.48;78.83;93743.22;4382884;32;20325;-62
2021/12/02 01:01:03;;;;;;;0.30;0.30;;;;;;;7.55;77.74;93741.63;4382229;32;20333;-63
2021/12/02 01:03:39;;;;;;;0.40;0.40;;;;;;;7.48;77.99;93741.31;4372281;32;20307;-63
2021/12/02 01:06:06;;;;;;;0.20;0.20;;;;;;;7.33;77.89;93743.66;4385877;32;20319;-62
2021/12/02 01:08:33;;;;;;;0.30;0.30;;;;;;;7.27;78.08;93750.97;4388237;32;20288;-62
2021/12/02 01:10:59;;;;;;;0.33;0.30;;;;;;;7.29;77.47;93746.16;4386582;32;20280;-62
2021/12/02 01:13:24;;;;;;;0.30;0.30;;;;;;;7.42;77.10;93745.22;4383646;32;20276;-63
2021/12/02 01:15:50;;;;;;;0.47;0.47;;;;;;;7.31;77.49;93749.25;4384269;32;20226;-62
2021/12/02 01:18:16;;;;;;;1.80;0.40;;;;;;;7.25;78.03;93737.34;4371321;32;20188;-63
2021/12/02 01:20:45;;;;;;;0.40;0.40;;;;;;;7.18;77.76;93737.78;4377870;32;20266;-62
2021/12/02 01:23:11;;;;;;;0.30;0.30;;;;;;;7.28;77.28;93731.41;4384722;32;20184;-63
2021/12/02 01:25:36;;;;;;;0.60;0.60;;;;;;;7.10;78.14;93740.41;4379159;32;20348;-63
2021/12/02 01:28:02;;;;;;;0.37;0.37;;;;;;;7.05;78.35;93740.59;4389528;32;20235;-62
2021/12/02 01:30:29;;;;;;;0.20;0.20;;;;;;;7.16;78.62;93732.03;4384785;32;20203;-62
2021/12/02 01:33:04;;;;;;;1.03;0.40;;;;;;;7.18;78.13;93734.38;4375637;32;20184;-62
2021/12/02 01:35:31;;;;;;;0.53;0.53;;;;;;;7.11;78.34;93731.41;4389854;32;20309;-62
2021/12/02 01:37:57;;;;;;;0.50;0.50;;;;;;;7.05;78.46;93741.38;4381416;32;20277;-62
2021/12/02 01:40:22;;;;;;;1.10;0.40;;;;;;;7.07;78.06;93727.84;4377360;32;20280;-63
2021/12/02 01:42:53;;;;;;;0.47;0.30;;;;;;;7.08;77.61;93727.53;4381721;32;20230;-62
2021/12/02 01:45:27;;;;;;;0.73;0.30;;;;;;;6.97;78.02;93723.69;4378612;32;20197;-62
2021/12/02 01:47:54;;;;;;;0.43;0.43;;;;;;;7.03;77.83;93719.03;4379750;32;20294;-62
2021/12/02 01:50:23;;;;;;;0.70;0.40;;;;;;;6.98;78.10;93716.53;4376815;32;20296;-62
2021/12/02 01:53:00;;;;;;;1.23;0.40;;;;;;;6.88;77.73;93728.94;4381472;32;20295;-62
2021/12/02 01:55:28;;;;;;;0.77;0.47;;;;;;;6.86;78.15;93722.41;4376040;32;20302;-62
2021/12/02 01:58:07;;;;;;;0.30;0.30;;;;;;;7.03;77.71;93724.31;4386210;32;20287;-62
2021/12/02 02:00:44;;;;;;;0.40;0.40;;;;;;;6.85;78.22;93726.94;4379048;32;20280;-62
2021/12/02 02:03:11;;;;;;;0.77;0.30;;;;;;;6.83;77.91;93731.72;4377531;32;20297;-63
2021/12/02 02:05:36;;;;;;;0.40;0.40;;;;;;;6.88;78.22;93728.94;4379767;32;20299;-62
2021/12/02 02:08:21;;;;;;;0.50;0.40;;;;;;;6.76;78.69;93734.03;4384241;32;20284;-62
2021/12/02 02:10:46;;;;;;;0.40;0.40;;;;;;;6.71;78.98;93738.69;4380098;32;20188;-62
2021/12/02 02:13:13;;;;;;;0.83;0.50;;;;;;;6.67;79.02;93735.87;4382697;32;20334;-62
2021/12/02 02:15:44;;;;;;;1.17;0.50;;;;;;;6.77;79.33;93722.41;4381450;32;20205;-62
2021/12/02 02:18:43;;;;;;;0.40;0.40;;;;;;;6.76;79.50;93731.41;4382535;32;20296;-62
2021/12/02 02:21:07;;;;;;;0.40;0.40;;;;;;;6.70;79.56;93732.62;4380517;32;20295;-62
2021/12/02 02:23:38;;;;;;;0.60;0.60;;;;;;;6.81;79.43;93741.03;4375205;32;20296;-62
2021/12/02 02:26:04;;;;;;;0.50;0.50;;;;;;;6.77;79.46;93738.22;4385600;32;20279;-62
2021/12/02 02:28:30;;;;;;;0.70;0.70;;;;;;;6.72;79.88;93750.78;4382554;32;20269;-62
2021/12/02 02:30:56;;;;;;;0.40;0.40;;;;;;;6.64;80.11;93752.31;4381033;32;20307;-62
2021/12/02 02:33:22;;;;;;;0.63;0.63;;;;;;;6.73;79.95;93747.81;4383337;32;20193;-62
2021/12/02 02:35:49;;;;;;;0.73;0.60;;;;;;;6.72;80.04;93751.53;4383261;32;20204;-62
2021/12/02 02:38:14;;;;;;;0.60;0.60;;;;;;;6.67;80.32;93740.38;4387689;32;20323;-62
2021/12/02 02:40:43;;;;;;;0.80;0.50;;;;;;;6.76;79.79;93739.31;4386771;32;20299;-63
2021/12/02 02:43:19;;;;;;;0.93;0.70;;;;;;;6.77;79.51;93750.63;4384179;32;20192;-62
2021/12/02 02:45:45;;;;;;;1.77;0.70;;;;;;;6.88;79.19;93744.75;4372030;32;20292;-63
2021/12/02 02:48:10;;;;;;;0.50;0.50;;;;;;;6.93;79.23;93738.56;4373173;32;20295;-62
2021/12/02 02:50:35;;;;;;;0.43;0.43;;;;;;;6.93;79.24;93741.19;4386712;32;20241;-62
2021/12/02 02:53:21;;;;;;;0.50;0.50;;;;;;;6.90;79.58;93742.56;4388395;32;20188;-62
2021/12/02 02:56:07;;;;;;;0.70;0.70;;;;;;;6.81;80.46;93744.44;4378679;32;20216;-62
2021/12/02 03:03:58;;;;;;;1.00;1.00;;;;;;;6.84;81.12;93750.97;4381717;32;20322;-62
2021/12/02 03:06:38;;;;;;;0.47;0.47;;;;;;;7.06;80.70;93760.59;4378301;32;21598;-62
2021/12/02 03:09:13;;;;;;;0.60;0.60;;;;;;;6.93;82.87;93769.41;4370046;32;20315;-62
2021/12/02 03:11:43;;;;;;;0.60;0.60;;;;;;;6.88;83.66;93757.91;4388520;32;20277;-62
2021/12/02 03:14:15;;;;;;;1.10;0.97;;;;;;;6.76;85.40;93762.25;4385525;32;20287;-62
2021/12/02 03:16:44;;;;;;;0.57;0.50;;;;;;;6.81;85.86;93762.12;4380691;32;20303;-63
2021/12/02 03:19:13;;;;;;;1.17;0.70;;;;;;;6.67;86.80;93770.12;4381601;32;20272;-62
2021/12/02 03:21:39;;;;;;;0.70;0.70;;;;;;;6.62;87.53;93759.75;4374881;32;20284;-62
2021/12/02 03:24:05;;;;;;;0.80;0.80;;;;;;;6.63;87.14;93769.22;4380603;32;20292;-63
2021/12/02 03:26:32;;;;;;;1.27;0.80;;;;;;;6.69;87.23;93770.59;4383691;32;20241;-62
2021/12/02 03:28:57;;;;;;;0.67;0.60;;;;;;;6.67;87.46;93767.50;4381622;32;20288;-62
2021/12/02 03:31:25;;;;;;;0.30;0.30;;;;;;;6.65;86.99;93787.34;4387048;32;20357;-62
2021/12/02 03:33:51;;;;;;;0.67;0.30;;;;;;;6.40;85.77;93804.63;4374097;32;20201;-62
2021/12/02 03:36:18;;;;;;;0.23;0.23;;;;;;;6.25;86.47;93805.00;4373807;32;20272;-62
2021/12/02 03:38:44;;;;;;;0.13;0.13;;;;;;;6.10;87.49;93812.22;4380456;32;20211;-62
2021/12/02 03:41:09;;;;;;;0.53;0.20;;;;;;;5.91;88.22;93821.41;4380802;32;20288;-62
2021/12/02 03:43:40;;;;;;;0.73;0.23;;;;;;;5.62;89.91;93819.16;4370882;32;20511;-62
2021/12/02 03:46:07;;;;;;;0.30;0.30;;;;;;;5.66;90.92;93810.38;4379097;32;20232;-62
2021/12/02 03:48:38;;;;;;;0.20;0.20;;;;;;;5.60;91.14;93818.69;4384123;32;20292;-62
2021/12/02 03:51:09;;;;;;;0.77;0.20;;;;;;;5.45;91.89;93820.59;4376135;32;20299;-62
2021/12/02 03:53:34;;;;;;;0.20;0.20;;;;;;;5.49;91.05;93815.50;4376239;32;20280;-63
2021/12/02 03:56:01;;;;;;;0.63;0.27;;;;;;;5.63;90.74;93810.19;4373935;32;20303;-62
2021/12/02 03:58:27;;;;;;;0.60;0.20;;;;;;;5.42;90.73;93804.63;4382180;32;20301;-62
2021/12/02 04:00:53;;;;;;;0.13;0.13;;;;;;;5.41;91.96;93817.00;4380548;32;20284;-62
2021/12/02 04:03:18;;;;;;;0.43;0.20;;;;;;;5.36;92.62;93803.97;4381022;32;20310;-62
2021/12/02 04:05:43;;;;;;;0.40;0.20;;;;;;;5.40;92.67;93812.81;4384064;32;20184;-62
2021/12/02 04:08:11;;;;;;;0.10;0.10;;;;;;;5.39;92.22;93807.88;4385191;32;20189;-62
2021/12/02 04:10:37;;;;;;;0.70;0.17;;;;;;;5.50;91.55;93809.97;4380360;32;20189;-63
2021/12/02 04:15:39;;;;;;;0.77;0.30;;;;;;;5.44;92.96;93805.09;4381894;32;20284;-62
2021/12/02 04:18:08;;;;;;;0.30;0.13;;;;;;;5.57;92.13;93811.41;4382900;32;20284;-62
2021/12/02 04:20:33;;;;;;;0.43;0.30;;;;;;;5.64;92.02;93807.25;4384789;32;20307;-62
2021/12/02 04:22:58;;;;;;;0.60;0.17;;;;;;;5.61;92.26;93802.59;4392884;32;20289;-62
2021/12/02 04:25:26;;;;;;;0.20;0.10;;;;;;;5.62;92.90;93804.16;4388498;32;20263;-62
2021/12/02 04:27:53;;;;;;;0.10;0.10;;;;;;;5.65;92.58;93794.88;4380005;32;20176;-62
2021/12/02 04:30:26;;;;;;;0.37;0.27;;;;;;;5.63;92.39;93799.66;4385910;32;20387;-62
2021/12/02 04:32:53;;;;;;;0.20;0.20;;;;;;;5.47;93.26;93797.41;4378639;32;20272;-62
2021/12/02 04:35:19;;;;;;;1.17;0.30;;;;;;;5.50;93.37;93796.81;4383896;32;20280;-62
2021/12/02 04:37:48;;;;;;;0.10;0.10;;;;;;;5.53;93.33;93792.81;4384997;32;20370;-62
2021/12/02 04:40:16;;;;;;;0.97;0.27;;;;;;;5.43;93.74;93795.66;4379073;32;20292;-62
2021/12/02 04:42:45;;;;;;;0.30;0.20;;;;;;;5.45;94.01;93789.03;4381423;32;20326;-62
2021/12/02 04:45:11;;;;;;;0.20;0.20;;;;;;;5.45;94.28;93789.03;4381059;32;20292;-62
2021/12/02 04:47:36;;;;;;;0.23;0.20;;;;;;;5.51;93.57;93785.22;4383450;32;20291;-62
2021/12/02 04:50:04;;;;;;;0.30;0.20;;;;;;;5.53;93.20;93790.97;4388611;32;20314;-62
2021/12/02 04:52:29;;;;;;;0.43;0.20;;;;;;;5.46;93.32;93797.69;4385090;32;20197;-62
2021/12/02 04:54:54;;;;;;;0.60;0.40;;;;;;;5.50;93.77;93802.06;4380789;32;20310;-62
2021/12/02 04:57:19;;;;;;;0.27;0.20;;;;;;;5.62;94.08;93793.62;4379336;32;20209;-62
2021/12/02 04:59:45;;;;;;;0.40;0.30;;;;;;;5.49;94.47;93795.25;4384424;32;20236;-62
2021/12/02 05:02:10;;;;;;;0.97;0.43;;;;;;;5.55;94.52;93798.56;4386491;32;20199;-62
2021/12/02 05:04:35;;;;;;;1.13;0.50;;;;;;;5.62;93.22;93798.13;4389595;32;20272;-62
2021/12/02 05:07:01;;;;;;;0.50;0.43;;;;;;;5.52;93.76;93805.19;4386501;32;20184;-62
2021/12/02 05:09:26;;;;;;;0.60;0.50;;;;;;;5.53;93.91;93800.69;4389001;32;20185;-62
2021/12/02 05:11:51;;;;;;;1.77;0.87;;;;;;;5.50;93.85;93801.28;4384905;32;20212;-62
2021/12/02 05:14:17;;;;;;;1.63;0.53;;;;;;;5.40;94.59;93791.78;4381300;32;20194;-62
2021/12/02 05:16:42;;;;;;;0.50;0.50;;;;;;;5.47;94.34;93791.38;4389126;32;20181;-62
2021/12/02 05:19:08;;;;;;;0.50;0.50;;;;;;;5.57;94.24;93795.63;4380676;32;20225;-62
2021/12/02 05:21:33;;;;;;;0.50;0.50;;;;;;;5.77;93.41;93800.41;4392278;32;20181;-62
2021/12/02 05:23:58;;;;;;;1.03;0.50;;;;;;;5.75;93.04;93802.53;4392103;32;20210;-62
2021/12/02 05:26:25;;;;;;;0.83;0.50;;;;;;;5.77;92.79;93800.41;4378864;32;20335;-62
2021/12/02 05:28:52;;;;;;;0.50;0.50;;;;;;;5.68;93.25;93802.97;4389647;32;20272;-62
2021/12/02 05:31:18;;;;;;;0.93;0.70;;;;;;;5.77;93.55;93800.41;4386760;32;20287;-62
2021/12/02 05:33:44;;;;;;;1.00;0.80;;;;;;;5.90;92.69;93799.56;4373527;32;20276;-62
2021/12/02 05:36:09;;;;;;;0.63;0.63;;;;;;;5.95;92.69;93791.56;4382399;32;20355;-62
2021/12/02 05:38:35;;;;;;;0.93;0.73;;;;;;;5.96;92.23;93797.59;4376238;32;20260;-62
2021/12/02 05:41:01;;;;;;;0.73;0.73;;;;;;;6.12;92.09;93804.03;4380893;32;20261;-62
2021/12/02 05:43:26;;;;;;;0.70;0.70;;;;;;;6.13;91.73;93808.97;4381286;32;20193;-62
2021/12/02 05:45:52;;;;;;;0.93;0.80;;;;;;;6.12;91.21;93798.75;4381173;32;20192;-62
2021/12/02 05:48:17;;;;;;;0.70;0.70;;;;;;;5.82;92.42;93797.63;4385028;32;20180;-62
2021/12/02 05:50:42;;;;;;;0.80;0.80;;;;;;;5.81;92.82;93796.09;4389183;32;20206;-62
2021/12/02 05:53:08;;;;;;;1.63;1.60;;;;;;;5.83;93.02;93791.28;4376388;32;20226;-62
2021/12/02 05:55:33;;;;;;;1.53;1.43;;;;;;;5.96;92.45;93793.09;4383368;32;20208;-62
2021/12/02 05:57:59;;;;;;;1.10;1.10;;;;;;;5.87;92.75;93798.28;4387198;32;20181;-62
2021/12/02 06:00:25;;;;;;;1.63;1.53;;;;;;;5.99;92.65;93789.87;4382682;32;20318;-62
2021/12/02 06:02:51;;;;;;;1.20;1.20;;;;;;;5.79;93.10;93804.28;4383060;32;20272;-62
2021/12/02 06:05:20;;;;;;;1.37;1.20;;;;;;;5.81;93.54;93799.50;4384465;32;20291;-62
2021/12/02 06:07:52;;;;;;;0.70;0.70;;;;;;;5.86;93.04;93798.56;4386808;32;20199;-63
2021/12/02 06:10:18;;;;;;;1.10;1.10;;;;;;;5.83;92.60;93796.53;4379049;32;20285;-62
2021/12/02 06:12:44;;;;;;;0.70;0.70;;;;;;;5.83;92.49;93793.91;4380372;32;20326;-62
2021/12/02 06:15:10;;;;;;;1.20;0.93;;;;;;;5.74;92.71;93796.50;4381555;32;20291;-61
2021/12/02 06:17:36;;;;;;;0.60;0.60;;;;;;;5.60;92.48;93797.66;4386568;32;20193;-62
2021/12/02 06:20:04;;;;;;;0.83;0.73;;;;;;;5.57;92.24;93798.25;4382079;32;20272;-61
2021/12/02 06:22:29;;;;;;;7.13;0.97;;;;;;;5.52;92.62;93794.66;4385081;32;20200;-61
2021/12/02 06:25:16;;;;;;;0.63;0.57;;;;;;;5.51;92.05;93787.84;4383857;32;20369;-61
2021/12/02 06:27:45;;;;;;;4.27;1.00;;;;;;;5.40;92.12;93791.78;4377198;32;20228;-62
2021/12/02 06:30:13;;;;;;;1.40;0.80;;;;;;;5.51;92.37;93793.09;4375968;32;20280;-62
2021/12/02 06:32:41;;;;;;;1.97;0.80;;;;;;;5.51;91.92;93798.38;4373333;32;20273;-63
2021/12/02 06:35:08;;;;;;;1.00;0.80;;;;;;;5.65;91.73;93792.25;4376787;32;20392;-62
2021/12/02 06:37:33;;;;;;;1.93;0.70;;;;;;;5.70;90.99;93800.03;4377920;32;20298;-62
2021/12/02 06:39:59;;;;;;;0.60;0.60;;;;;;;5.70;89.98;93808.69;4377013;32;20318;-62
2021/12/02 06:42:24;;;;;;;1.90;0.50;;;;;;;5.57;90.20;93809.56;4378882;32;20279;-62
2021/12/02 06:44:49;;;;;;;1.57;1.00;;;;;;;5.60;89.38;93819.47;4381976;32;20189;-62
2021/12/02 06:47:15;;;;;;;0.83;0.70;;;;;;;5.56;89.33;93821.16;4382527;32;20191;-62
2021/12/02 06:49:41;;;;;;;0.70;0.70;;;;;;;5.45;89.79;93825.84;4373085;32;20242;-62
2021/12/02 06:52:13;;;;;;;0.80;0.80;;;;;;;5.59;88.01;93825.81;4385406;32;20184;-62
2021/12/02 06:54:39;;;;;;;0.70;0.40;;;;;;;5.63;88.00;93833.88;4380875;32;20287;-62
2021/12/02 06:57:05;;;;;;;1.60;0.80;;;;;;;5.56;87.77;93833.53;4387626;32;20377;-65
2021/12/02 06:59:31;;;;;;;1.13;1.00;;;;;;;5.65;87.49;93829.09;4383035;32;20281;-62
2021/12/02 07:01:56;;;;;;;0.93;0.60;;;;;;;5.64;88.06;93832.78;4386561;32;20352;-62
2021/12/02 07:04:22;;;;;;;0.73;0.60;;;;;;;5.62;87.15;93830.44;4377298;32;20220;-62
2021/12/02 07:06:47;;;;;;;2.40;2.07;;;;;;;5.79;85.89;93830.59;4382276;32;20200;-62
2021/12/02 07:09:13;;;;;;;0.80;0.80;;;;;;;5.68;86.53;93829.25;4385549;32;20192;-62
2021/12/02 07:11:39;;;;;;;1.17;0.70;;;;;;;5.68;86.22;93836.38;4381187;32;20272;-62
2021/12/02 07:14:07;;;;;;;2.17;1.00;;;;;;;5.59;86.62;93838.19;4383576;32;20180;-60
2021/12/02 07:16:33;;;;;;;1.50;0.93;;;;;;;5.81;85.15;93832.94;4375491;32;20218;-61
2021/12/02 07:19:02;;;;;;;1.23;0.80;;;;;;;5.69;85.12;93830.03;4375057;32;20280;-61
2021/12/02 07:21:27;;;;;;;3.43;1.30;;;;;;;5.63;85.12;93832.00;4373349;32;20398;-61
2021/12/02 07:23:53;;;;;;;0.67;0.67;;;;;;;5.76;84.97;93827.78;4379934;32;20290;-61
2021/12/02 07:26:19;;;;;;;2.43;1.07;;;;;;;5.49;83.83;93826.81;4379087;32;20185;-61
2021/12/02 07:28:45;;;;;;;1.47;0.93;;;;;;;5.50;84.18;93827.59;4382259;32;20189;-61
2021/12/02 07:31:12;;;;;;;0.80;0.80;;;;;;;5.47;84.26;93834.22;4384303;32;20232;-61
2021/12/02 07:33:39;;;;;;;1.47;0.70;;;;;;;5.41;84.15;93826.72;4381797;32;20298;-61
2021/12/02 07:36:05;;;;;;;3.97;0.80;;;;;;;5.40;84.40;93833.09;4383731;32;20300;-62
2021/12/02 07:38:32;;;;;;;1.90;0.57;;;;;;;5.42;84.34;93830.91;4385716;32;20307;-61
2021/12/02 07:41:03;;;;;;;6.37;1.23;;;;;;;5.46;83.96;93837.91;4382703;32;20267;-61
2021/12/02 07:43:31;;;;;;;0.63;0.60;;;;;;;5.47;84.35;93843.97;4374678;32;20280;-61
2021/12/02 07:45:57;;;;;;;32.60;2.80;;;;;;;5.49;84.28;93842.59;4383983;32;20330;-59
2021/12/02 07:48:23;;;;;;;24.07;2.80;;;;;;;6.09;91.33;93838.84;4382092;32;20284;-59
2021/12/02 07:50:49;;;;;;;8.30;1.47;;;;;;;7.03;95.17;93835.03;4386400;32;20247;-59
2021/12/02 07:53:16;;;;;;;3.80;0.70;;;;;;;7.10;88.44;93830.06;4387621;32;20299;-59
2021/12/02 07:55:41;;;;;;;8.93;2.40;;;;;;;7.14;82.67;93828.38;4383337;32;20207;-59
2021/12/02 07:58:09;;;;;;;5.07;1.20;;;;;;;7.37;85.25;93829.78;4384398;32;20277;-60
2021/12/02 08:00:34;;;;;;;3.10;1.03;;;;;;;7.33;82.30;93828.84;4385856;32;20193;-64
2021/12/02 08:03:00;;;;;;;2.93;1.17;;;;;;;7.43;80.45;93830.41;4396720;32;20307;-59
2021/12/02 08:05:26;;;;;;;5.17;1.23;;;;;;;7.62;82.16;93825.59;4387185;32;20193;-59
2021/12/02 08:07:53;;;;;;;4.00;1.00;;;;;;;7.72;79.83;93829.78;4378908;32;20184;-60
2021/12/02 08:10:20;;;;;;;0.80;0.70;;;;;;;7.96;81.97;93832.72;4383928;32;20386;-59
2021/12/02 08:12:50;;;;;;;0.53;0.53;;;;;;;7.52;77.18;93831.97;4389207;32;20326;-59
2021/12/02 08:15:19;;;;;;;1.27;0.63;;;;;;;7.40;77.86;93831.81;4382331;32;20360;-59
2021/12/02 08:17:45;;;;;;;1.73;0.60;;;;;;;7.42;79.81;93821.72;4378372;32;20326;-59
2021/12/02 08:20:11;;;;;;;1.27;0.60;;;;;;;7.49;78.46;93822.03;4388196;32;20288;-59
2021/12/02 08:22:39;;;;;;;1.20;0.90;;;;;;;7.44;76.75;93819.56;4383193;32;20220;-59
2021/12/02 08:25:05;;;;;;;0.60;0.60;;;;;;;7.36;76.40;93822.19;4383469;32;20285;-59
2021/12/02 08:27:31;;;;;;;2.67;0.70;;;;;;;7.36;77.99;93822.97;4386412;32;20288;-59
2021/12/02 08:29:56;;;;;;;1.47;0.67;;;;;;;7.36;78.16;93828.25;4388367;32;20317;-59
2021/12/02 08:32:21;;;;;;;2.83;1.03;;;;;;;7.54;77.88;93835.06;4385175;32;20262;-59
2021/12/02 08:34:47;;;;;;;1.90;1.00;;;;;;;7.47;76.50;93829.50;4385458;32;20243;-62
2021/12/02 08:37:12;;;;;;;1.90;0.73;;;;;;;7.36;74.50;93833.50;4384760;32;20310;-62
2021/12/02 08:39:40;;;;;;;1.17;0.70;;;;;;;6.65;75.48;93840.78;4387922;32;20229;-62
2021/12/02 08:42:06;;;;;;;0.83;0.60;;;;;;;6.51;76.78;93842.75;4386780;32;20189;-62
2021/12/02 08:44:34;;;;;;;3.27;0.70;;;;;;;6.27;77.75;93837.06;4382499;32;20375;-62
2021/12/02 08:46:59;;;;;;;1.27;1.00;;;;;;;6.45;77.51;93844.75;4376886;32;20176;-62
2021/12/02 08:49:24;;;;;;;0.70;0.60;;;;;;;6.27;77.05;93837.84;4379117;32;20456;-62
2021/12/02 08:51:51;;;;;;;3.33;0.80;;;;;;;6.25;77.31;93831.31;4375443;32;20208;-61
2021/12/02 08:54:18;;;;;;;1.40;1.10;;;;;;;6.10;77.96;93838.53;4384488;32;20240;-61
2021/12/02 08:56:44;;;;;;;0.63;0.63;;;;;;;6.15;78.23;93837.63;4378886;32;20327;-62
2021/12/02 08:59:09;;;;;;;1.20;0.70;;;;;;;6.19;77.50;93839.38;4380133;32;20295;-62
2021/12/02 09:01:35;;;;;;;1.83;1.03;;;;;;;6.13;78.42;93837.16;4385141;32;20198;-62
2021/12/02 09:04:02;;;;;;;1.50;0.70;;;;;;;6.38;77.24;93846.28;4386485;32;20184;-62
2021/12/02 09:06:28;;;;;;;1.00;0.80;;;;;;;6.29;77.38;93843.59;4381892;32;20180;-62
2021/12/02 09:08:54;;;;;;;1.97;0.67;;;;;;;6.20;77.87;93837.53;4380145;32;20356;-62
2021/12/02 09:11:20;;;;;;;3.33;0.80;;;;;;;6.42;77.78;93834.06;4387839;32;20276;-62
2021/12/02 09:13:46;;;;;;;2.63;0.90;;;;;;;6.43;76.47;93838.25;4384208;32;20338;-62
2021/12/02 09:16:12;;;;;;;1.33;0.70;;;;;;;6.54;75.95;93837.66;4380529;32;20277;-61
2021/12/02 09:18:38;;;;;;;2.10;0.60;;;;;;;6.60;75.54;93838.31;4380518;32;20295;-61
2021/12/02 09:21:03;;;;;;;1.77;0.73;;;;;;;6.44;75.10;93835.28;4380679;32;20272;-62
2021/12/02 09:23:29;;;;;;;0.63;0.63;;;;;;;6.57;75.14;93844.19;4373549;32;20186;-63
2021/12/02 09:25:58;;;;;;;2.00;0.60;;;;;;;6.36;74.91;93830.78;4381550;32;20283;-60
2021/12/02 09:28:23;;;;;;;1.20;0.60;;;;;;;6.46;75.08;93827.09;4383711;32;20198;-60
2021/12/02 09:30:49;;;;;;;1.20;0.60;;;;;;;6.31;74.60;93830.13;4385545;32;20284;-65
2021/12/02 09:33:15;;;;;;;1.77;0.47;;;;;;;6.52;74.21;93824.03;4379727;32;20199;-63
2021/12/02 09:35:40;;;;;;;1.27;0.63;;;;;;;6.50;73.71;93835.94;4378633;32;20196;-67
2021/12/02 09:38:08;;;;;;;2.23;0.60;;;;;;;6.42;73.76;93834.84;4385113;32;20353;-66
2021/12/02 09:40:33;;;;;;;1.53;0.70;;;;;;;6.44;74.20;93832.66;4381628;32;20192;-64
2021/12/02 09:42:59;;;;;;;0.70;0.60;;;;;;;6.49;74.15;93829.13;4385648;32;20291;-63
2021/12/02 09:45:27;;;;;;;0.80;0.53;;;;;;;6.54;73.92;93829.75;4375830;32;20291;-63
2021/12/02 09:47:53;;;;;;;2.13;0.60;;;;;;;6.68;73.21;93837.56;4386398;32;20188;-64
2021/12/02 09:50:26;;;;;;;3.17;0.83;;;;;;;6.81;72.96;93839.31;4383055;32;20299;-64
2021/12/02 09:52:53;;;;;;;2.80;0.80;;;;;;;6.80;73.40;93831.72;4380564;32;20259;-63
2021/12/02 09:55:23;;;;;;;3.90;0.80;;;;;;;6.73;72.69;93826.87;4382910;32;20291;-63
2021/12/02 09:57:54;;;;;;;0.93;0.50;;;;;;;6.81;72.36;93828.78;4383814;32;20284;-64
2021/12/02 10:00:23;;;;;;;0.57;0.50;;;;;;;6.74;73.90;93825.03;4373016;32;20322;-63
2021/12/02 10:02:54;;;;;;;1.27;0.47;;;;;;;6.66;72.86;93816.00;4376020;32;20281;-64
2021/12/02 10:05:46;;;;;;;1.43;0.53;;;;;;;6.76;72.39;93823.62;4387984;32;20302;-63
2021/12/02 10:08:32;;;;;;;0.67;0.67;;;;;;;6.74;72.32;93825.03;4381824;32;20344;-65
2021/12/02 10:11:01;;;;;;;1.90;1.20;;;;;;;6.81;71.91;93812.97;4380334;32;20316;-65
2021/12/02 10:13:45;;;;;;;3.13;0.63;;;;;;;6.80;72.48;93810.63;4380885;32;20292;-67
2021/12/02 10:16:20;;;;;;;1.37;0.60;;;;;;;6.84;72.48;93806.31;4370950;32;20334;-66
2021/12/02 10:21:28;;;;;;;5.40;0.83;;;;;;;6.95;72.89;93802.28;4383235;32;20280;-63
2021/12/02 10:23:53;;;;;;;1.53;0.70;;;;;;;7.09;72.37;93796.87;4383754;32;20387;-63
2021/12/02 10:26:21;;;;;;;0.60;0.60;;;;;;;7.16;71.97;93791.91;4389344;32;20280;-62
2021/12/02 10:28:48;;;;;;;3.07;0.70;;;;;;;7.15;71.56;93791.13;4384043;32;20180;-63
2021/12/02 10:31:19;;;;;;;3.10;1.00;;;;;;;7.40;71.36;93791.47;4388166;32;20340;-63
2021/12/02 10:33:49;;;;;;;1.80;0.80;;;;;;;7.45;70.91;93783.41;4386867;32;20298;-61
2021/12/02 10:36:27;;;;;;;2.57;0.50;;;;;;;7.29;71.08;93780.44;4381305;32;20280;-63
2021/12/02 10:38:54;;;;;;;2.17;0.70;;;;;;;7.29;70.87;93774.37;4375766;32;20330;-63
2021/12/02 10:41:24;;;;;;;1.40;0.70;;;;;;;7.15;71.91;93769.28;4381066;32;20305;-62
2021/12/02 10:44:16;;;;;;;12.13;1.33;;;;;;;7.16;71.98;93776.88;4383460;32;20299;-63
2021/12/02 10:47:03;;;;;;;0.70;0.50;;;;;;;7.48;70.66;93772.97;4386778;32;20397;-63
2021/12/02 10:49:31;;;;;;;1.90;1.23;;;;;;;7.38;70.61;93773.31;4378514;32;20272;-60
2021/12/02 10:52:01;;;;;;;1.70;0.90;;;;;;;7.50;70.24;93770.81;4366627;32;20311;-62
2021/12/02 10:54:33;;;;;;;1.70;0.60;;;;;;;7.51;69.64;93764.44;4370964;32;20281;-63
2021/12/02 10:57:07;;;;;;;0.83;0.50;;;;;;;7.47;70.00;93760.13;4375443;32;20288;-63
2021/12/02 10:59:40;;;;;;;3.10;0.50;;;;;;;7.42;69.69;93761.06;4369486;32;20350;-66
2021/12/02 11:02:24;;;;;;;1.30;0.70;;;;;;;7.48;69.71;93759.03;4371674;32;20280;-64
2021/12/02 11:05:01;;;;;;;3.77;1.67;;;;;;;7.47;69.47;93752.22;4383204;32;20283;-62
2021/12/02 11:07:33;;;;;;;3.00;1.90;;;;;;;7.54;68.89;93755.91;4371793;32;20297;-63
2021/12/02 11:10:07;;;;;;;2.20;2.00;;;;;;;7.54;69.22;93745.34;4375649;32;20291;-64
2021/12/02 11:12:41;;;;;;;2.10;1.03;;;;;;;7.56;69.28;93742.41;4360424;32;20277;-61
2021/12/02 11:15:15;;;;;;;1.07;0.70;;;;;;;7.59;69.43;93747.84;4366184;32;20280;-63
2021/12/02 11:17:45;;;;;;;1.70;0.63;;;;;;;7.68;68.55;93749.69;4368166;32;20273;-62
2021/12/02 11:20:22;;;;;;;1.60;1.00;;;;;;;7.70;67.93;93742.22;4372739;32;20307;-60
2021/12/02 11:22:59;;;;;;;3.47;0.77;;;;;;;7.47;69.54;93737.16;4369151;32;20410;-60
2021/12/02 11:25:30;;;;;;;1.93;0.80;;;;;;;7.57;69.58;93749.25;4376964;32;20358;-62
2021/12/02 11:27:56;;;;;;;1.30;1.00;;;;;;;7.65;68.98;93740.53;4365091;32;20410;-62
2021/12/02 11:30:26;;;;;;;5.57;0.97;;;;;;;7.76;68.96;93747.03;4377842;32;20323;-62
2021/12/02 11:33:00;;;;;;;1.87;0.63;;;;;;;7.74;69.12;93738.66;4373423;32;20192;-61
2021/12/02 11:35:32;;;;;;;2.67;1.00;;;;;;;7.72;68.29;93746.09;4365134;32;20371;-62
2021/12/02 11:38:28;;;;;;;2.43;0.70;;;;;;;7.71;68.15;93739.28;4368560;32;20277;-61
2021/12/02 11:41:02;;;;;;;3.10;1.00;;;;;;;7.76;68.00;93728.56;4372418;32;20327;-64
2021/12/02 11:43:34;;;;;;;0.87;0.73;;;;;;;7.55;68.55;93720.53;4368202;32;20288;-62
2021/12/02 11:46:02;;;;;;;4.27;0.43;;;;;;;7.57;68.52;93718.34;4363827;32;20289;-62
2021/12/02 11:48:34;;;;;;;2.00;0.43;;;;;;;7.60;68.77;93714.31;4358400;32;20288;-63
2021/12/02 11:51:05;;;;;;;1.73;0.60;;;;;;;7.53;68.25;93706.88;4367014;32;20285;-63
2021/12/02 11:53:30;;;;;;;1.90;0.40;;;;;;;7.54;68.53;93708.41;4375872;32;20284;-63
2021/12/02 11:55:58;;;;;;;1.50;0.63;;;;;;;7.75;68.47;93711.16;4370154;32;20318;-62
2021/12/02 11:58:24;;;;;;;2.53;0.70;;;;;;;7.87;67.51;93716.59;4370665;32;20208;-60
2021/12/02 12:00:50;;;;;;;3.70;0.80;;;;;;;7.75;68.46;93713.81;4377495;32;20272;-63
2021/12/02 12:03:24;;;;;;;0.73;0.50;;;;;;;7.64;68.12;93709.19;4366818;32;20197;-63
2021/12/02 12:06:23;;;;;;;3.53;1.00;;;;;;;7.59;68.12;93705.63;4372078;32;20279;-61